KBLU/BLU METAR and TAF weather

Enter ICAO airport designator
Station Type Date Time Source
KBLU METAR 2021/05/14 02:52 UTC NOAA

KBLU 140252Z AUTO 28003KT 10SM CLR 19/01 A3016 RMK AO2 SLP131 T01890006 55001


Station Type Date Time Source
KBLU Decoded METAR 2021/05/14 02:52 UTC NOAA

BLUE CANYON AIRPORT, CA, United States (KBLU) 39-17N 120-42W 1609M
May 13, 2021 - 10:52 PM EDT / 2021.05.14 0252 UTC
Wind: from the W (280 degrees) at 3 MPH (3 KT):0
Visibility: 10 mile(s):0
Sky conditions: clear
Temperature: 66.0 F (18.9 C)
Dew Point: 33.1 F (0.6 C)
Relative Humidity: 29%
Pressure (altimeter): 30.16 in. Hg (1021 hPa)
Pressure tendency: 0.00 inches (0.1 hPa) lower than three hours ago
ob: KBLU 140252Z AUTO 28003KT 10SM CLR 19/01 A3016 RMK AO2 SLP131 T01890006 55001
cycle: 3

Station Type Date Time Source
KBLU TAF UTC NOAA

Error!

Example: see airport list